Scot Stuttgart — 9HA4097 — position and weather

sailwx.info

Track history (hours):
 
Tides and Currents Weather Stations Pressure Air Temp Water Temp Dewpoint Dewpoint Depression Visibility Wind Speed Wind Dir Waves Ship Positions

Scot Stuttgart

Last reported at 2017-Nov-13 23:01 UTC. Time now 2017-Nov-18 16:03 UTC.
Position S 24°09' W 046°01'.

Length 117 m; draft 5.8 m.

Type: Tanker. MMSI: 249072000.

Date/timePositionNaut miles runAvg speedWind from/ knotsBaromVisibWave heightAir tempDewpointWater temp
2017-Nov-13 23:01S 24°09' W 046°01'114.2
2017-Nov-13 22:55S 24°09' W 046°02'614.3
2017-Nov-13 22:30S 24°06' W 046°08'714.9
2017-Nov-13 22:01S 24°04' W 046°16'10 0.3
2017-Nov-12 07:33S 23°55' W 046°21'0 2.8
2017-Nov-12 07:29S 23°55' W 046°21'3 6.5
2017-Nov-12 06:59S 23°57' W 046°18'3 6.3
2017-Nov-12 06:31S 23°60' W 046°20'4 8.2
2017-Nov-12 06:00S 24°04' W 046°21'3 6.3
2017-Nov-12 05:30S 24°07' W 046°22'3 6.1
2017-Nov-12 05:01S 24°09' W 046°20'1 2.1
2017-Nov-12 04:28S 24°09' W 046°19'0 0.0
2017-Nov-12 03:55S 24°09' W 046°19'0 0.1
2017-Nov-12 03:28S 24°09' W 046°19'0 0.1
2017-Nov-12 02:58S 24°09' W 046°19'0 0.0
2017-Nov-12 02:25S 24°09' W 046°19'0 0.0
2017-Nov-12 01:49S 24°09' W 046°19'0 0.0
2017-Nov-12 01:19S 24°09' W 046°19'0 0.0
2017-Nov-12 00:58S 24°09' W 046°19'0 0.0
2017-Nov-12 00:25S 24°09' W 046°19'0 0.9
2017-Nov-12 00:00S 24°10' W 046°19'5 9.8
2017-Nov-11 23:30S 24°13' W 046°22'714.1
2017-Nov-11 23:00S 24°20' W 046°25'714.1
2017-Nov-11 22:31S 24°26' W 046°28'714.5
2017-Nov-11 22:00S 24°33' W 046°30'814.6
2017-Nov-11 21:29S 24°40' W 046°33'714.7
2017-Nov-11 20:59S 24°47' W 046°36'814.7
2017-Nov-11 20:27S 24°55' W 046°38'1714.5
2017-Nov-11 19:15S 25°12' W 046°43'414.4
2017-Nov-11 19:00S 25°15' W 046°44'  
Track history (hours):
 
Tides and Currents Weather Stations Pressure Air Temp Water Temp Dewpoint Dewpoint Depression Visibility Wind Speed Wind Dir Waves Ship Positions

Scot Stuttgart

Last reported at 2017-Nov-13 23:01 UTC. Time now 2017-Nov-18 16:03 UTC.
Position S 24°09' W 046°01'.

Length 117 m; draft 5.8 m.

Type: Tanker. MMSI: 249072000.

Date/timePositionNaut miles runAvg speedWind from/ knotsBaromVisibWave heightAir tempDewpointWater temp
2017-Nov-13 23:01S 24°09' W 046°01'114.2
2017-Nov-13 22:55S 24°09' W 046°02'614.3
2017-Nov-13 22:30S 24°06' W 046°08'714.9
2017-Nov-13 22:01S 24°04' W 046°16'10 0.3
2017-Nov-12 07:33S 23°55' W 046°21'0 2.8
2017-Nov-12 07:29S 23°55' W 046°21'3 6.5
2017-Nov-12 06:59S 23°57' W 046°18'3 6.3
2017-Nov-12 06:31S 23°60' W 046°20'4 8.2
2017-Nov-12 06:00S 24°04' W 046°21'3 6.3
2017-Nov-12 05:30S 24°07' W 046°22'3 6.1
2017-Nov-12 05:01S 24°09' W 046°20'1 2.1
2017-Nov-12 04:28S 24°09' W 046°19'0 0.0
2017-Nov-12 03:55S 24°09' W 046°19'0 0.1
2017-Nov-12 03:28S 24°09' W 046°19'0 0.1
2017-Nov-12 02:58S 24°09' W 046°19'0 0.0
2017-Nov-12 02:25S 24°09' W 046°19'0 0.0
2017-Nov-12 01:49S 24°09' W 046°19'0 0.0
2017-Nov-12 01:19S 24°09' W 046°19'0 0.0
2017-Nov-12 00:58S 24°09' W 046°19'0 0.0
2017-Nov-12 00:25S 24°09' W 046°19'0 0.9
2017-Nov-12 00:00S 24°10' W 046°19'5 9.8
2017-Nov-11 23:30S 24°13' W 046°22'714.1
2017-Nov-11 23:00S 24°20' W 046°25'714.1
2017-Nov-11 22:31S 24°26' W 046°28'714.5
2017-Nov-11 22:00S 24°33' W 046°30'814.6
2017-Nov-11 21:29S 24°40' W 046°33'714.7
2017-Nov-11 20:59S 24°47' W 046°36'814.7
2017-Nov-11 20:27S 24°55' W 046°38'1714.5
2017-Nov-11 19:15S 25°12' W 046°43'414.4
2017-Nov-11 19:00S 25°15' W 046°44'  

Dump ship's entire track history